createdAt,value
2022-11-30T00:01:22.376Z,1.30
2022-11-30T00:03:53.160Z,1.30
2022-11-30T00:06:23.442Z,1.30
2022-11-30T00:08:54.769Z,1.20
2022-11-30T00:11:23.380Z,1.20
2022-11-30T00:13:50.591Z,1.20
2022-11-30T00:16:17.679Z,1.20
2022-11-30T00:18:44.699Z,1.10
2022-11-30T00:21:13.936Z,1.20
2022-11-30T00:23:43.047Z,1.20
2022-11-30T00:26:13.168Z,1.20
2022-11-30T00:28:40.603Z,2.30
2022-11-30T00:31:10.986Z,1.10
2022-11-30T00:33:38.761Z,1.10
2022-11-30T00:36:08.383Z,1.30
2022-11-30T00:38:36.027Z,1.30
2022-11-30T00:41:03.197Z,1.20
2022-11-30T00:43:30.646Z,1.10
2022-11-30T00:45:58.126Z,1.20
2022-11-30T00:48:25.242Z,1.10
2022-11-30T00:50:52.733Z,1.20
2022-11-30T00:53:21.029Z,1.30
2022-11-30T00:55:48.708Z,1.20
2022-11-30T00:58:15.669Z,1.20
2022-11-30T01:00:42.793Z,1.10
2022-11-30T01:03:10.228Z,1.20
2022-11-30T01:05:37.374Z,1.20
2022-11-30T01:08:07.244Z,1.20
2022-11-30T01:10:36.032Z,1.20
2022-11-30T01:13:03.080Z,1.00
2022-11-30T01:15:30.728Z,1.00
2022-11-30T01:18:00.186Z,1.00
2022-11-30T01:20:27.051Z,1.00
2022-11-30T01:22:56.129Z,1.10
2022-11-30T01:25:23.557Z,1.10
2022-11-30T01:27:51.353Z,1.20
2022-11-30T01:30:18.923Z,1.20
2022-11-30T01:32:45.800Z,1.00
2022-11-30T01:35:12.695Z,1.00
2022-11-30T01:37:39.565Z,1.00
2022-11-30T01:40:07.676Z,1.10
2022-11-30T01:42:34.613Z,1.00
2022-11-30T01:45:02.565Z,1.00
2022-11-30T01:47:39.339Z,1.00
2022-11-30T01:50:27.529Z,1.00
2022-11-30T01:52:56.826Z,1.10
2022-11-30T01:55:32.506Z,1.10
2022-11-30T01:58:15.139Z,1.10
2022-11-30T02:00:46.597Z,1.00
2022-11-30T02:03:49.270Z,0.90
2022-11-30T02:06:16.398Z,0.80
2022-11-30T02:08:43.501Z,0.90
2022-11-30T02:11:14.051Z,0.80
2022-11-30T02:14:06.132Z,0.90
2022-11-30T02:16:51.424Z,0.90
2022-11-30T02:19:39.830Z,0.90
2022-11-30T02:22:29.924Z,0.90
2022-11-30T02:25:02.487Z,0.80
2022-11-30T02:27:44.014Z,0.90
2022-11-30T02:30:15.715Z,1.00
2022-11-30T02:33:11.894Z,1.00
2022-11-30T02:35:44.243Z,1.00
2022-11-30T02:38:12.594Z,0.90
2022-11-30T02:40:39.443Z,0.90
2022-11-30T02:43:07.369Z,0.90
2022-11-30T02:45:58.769Z,1.00
2022-11-30T02:48:51.125Z,0.90
2022-11-30T02:51:25.355Z,1.10
2022-11-30T02:53:52.964Z,1.10
2022-11-30T02:56:20.808Z,1.10
2022-11-30T02:58:48.221Z,1.20
2022-11-30T03:01:15.287Z,1.10
2022-11-30T03:03:42.208Z,1.00
2022-11-30T03:06:09.053Z,0.90
2022-11-30T03:08:35.924Z,0.90
2022-11-30T03:11:04.127Z,0.90
2022-11-30T03:13:34.841Z,1.00
2022-11-30T03:16:10.088Z,1.10
2022-11-30T03:18:37.378Z,1.10
2022-11-30T03:21:08.270Z,1.10
2022-11-30T03:23:35.770Z,1.00
2022-11-30T03:26:03.022Z,1.00
2022-11-30T03:28:30.024Z,1.10
2022-11-30T03:30:58.149Z,1.10
2022-11-30T03:33:25.382Z,1.00
2022-11-30T03:36:07.146Z,1.10
2022-11-30T03:38:34.708Z,1.20
2022-11-30T03:41:03.966Z,1.10
2022-11-30T03:43:31.540Z,1.10
2022-11-30T03:45:58.896Z,1.10
2022-11-30T03:48:26.178Z,1.10
2022-11-30T03:50:53.138Z,1.10
2022-11-30T03:53:21.700Z,1.00
2022-11-30T03:55:56.727Z,1.10
2022-11-30T03:58:24.483Z,1.20
2022-11-30T04:01:04.071Z,1.10
2022-11-30T04:03:33.750Z,1.10
2022-11-30T04:06:00.774Z,1.10
2022-11-30T04:08:28.421Z,1.10
2022-11-30T04:10:56.700Z,1.10
2022-11-30T04:13:24.818Z,1.20
2022-11-30T04:15:53.564Z,1.20
2022-11-30T04:18:22.767Z,1.10
2022-11-30T04:20:54.710Z,1.20
2022-11-30T04:23:23.623Z,1.20
2022-11-30T04:25:50.613Z,1.30
2022-11-30T04:28:18.278Z,1.20
2022-11-30T04:30:46.234Z,1.10
2022-11-30T04:33:14.816Z,1.20
2022-11-30T04:35:45.608Z,1.10
2022-11-30T04:38:12.532Z,1.10
2022-11-30T04:40:40.836Z,1.10
2022-11-30T04:43:08.198Z,1.20
2022-11-30T04:45:35.838Z,1.20
2022-11-30T04:48:04.251Z,1.30
2022-11-30T04:50:31.612Z,1.40
2022-11-30T04:52:58.488Z,1.40
2022-11-30T04:55:25.890Z,1.30
2022-11-30T04:57:53.109Z,1.30
2022-11-30T05:00:21.409Z,1.30
2022-11-30T05:02:52.768Z,1.30
2022-11-30T05:05:20.492Z,1.30
2022-11-30T05:07:57.782Z,1.30
2022-11-30T05:10:25.545Z,1.30
2022-11-30T05:12:52.822Z,1.30
2022-11-30T05:15:19.751Z,1.30
2022-11-30T05:17:46.738Z,1.40
2022-11-30T05:20:14.038Z,1.30
2022-11-30T05:22:41.086Z,1.30
2022-11-30T05:25:08.328Z,1.20
2022-11-30T05:27:35.527Z,1.10
2022-11-30T05:30:03.263Z,1.30
2022-11-30T05:32:30.177Z,1.30
2022-11-30T05:34:57.547Z,1.30
2022-11-30T05:37:24.741Z,1.40
2022-11-30T05:39:51.622Z,1.20
2022-11-30T05:42:18.464Z,1.20
2022-11-30T05:44:45.869Z,1.10
2022-11-30T05:47:13.163Z,1.20
2022-11-30T05:49:40.053Z,1.30
2022-11-30T05:52:06.913Z,1.20
2022-11-30T05:54:35.027Z,1.30
2022-11-30T05:57:01.902Z,1.40
2022-11-30T05:59:28.747Z,1.30
2022-11-30T06:01:55.749Z,1.30
2022-11-30T06:04:22.700Z,1.30
2022-11-30T06:06:51.006Z,1.30
2022-11-30T06:09:18.043Z,1.40
2022-11-30T06:11:44.866Z,1.30
2022-11-30T06:14:11.743Z,1.40
2022-11-30T06:16:40.126Z,1.40
2022-11-30T06:19:07.409Z,1.40
2022-11-30T06:21:34.441Z,1.40
2022-11-30T06:24:01.434Z,1.50
2022-11-30T06:26:28.334Z,1.30
2022-11-30T06:28:55.170Z,1.40
2022-11-30T06:31:22.155Z,1.40
2022-11-30T06:33:49.777Z,1.40
2022-11-30T06:36:22.149Z,1.40
2022-11-30T06:38:49.194Z,1.50
2022-11-30T06:41:16.084Z,1.60
2022-11-30T06:43:43.049Z,1.60
2022-11-30T06:46:10.276Z,1.50
2022-11-30T06:48:37.287Z,1.50
2022-11-30T06:51:08.743Z,1.40
2022-11-30T06:53:36.008Z,1.50
2022-11-30T06:56:10.473Z,1.50
2022-11-30T06:58:39.652Z,1.50
2022-11-30T07:01:13.014Z,1.60
2022-11-30T07:03:41.083Z,1.60
2022-11-30T07:06:13.354Z,1.60
2022-11-30T07:08:41.077Z,1.50
2022-11-30T07:11:09.199Z,1.50
2022-11-30T07:13:36.674Z,1.50
2022-11-30T07:16:05.977Z,1.50
2022-11-30T07:18:33.625Z,1.50
2022-11-30T07:21:01.766Z,1.60
2022-11-30T07:23:52.360Z,1.50
2022-11-30T07:26:22.204Z,1.40
2022-11-30T07:28:54.831Z,1.50
2022-11-30T07:31:30.908Z,1.50
2022-11-30T07:33:59.337Z,1.30
2022-11-30T07:36:27.713Z,1.30
2022-11-30T07:38:55.033Z,2.70
2022-11-30T07:41:22.116Z,1.30
2022-11-30T07:43:49.046Z,1.50
2022-11-30T07:46:16.627Z,1.40
2022-11-30T07:48:44.415Z,1.40
2022-11-30T07:51:15.216Z,1.30
2022-11-30T07:53:42.163Z,1.40
2022-11-30T07:56:12.058Z,1.50
2022-11-30T07:58:39.428Z,1.40
2022-11-30T08:01:12.788Z,1.50
2022-11-30T08:03:40.079Z,1.50
2022-11-30T08:06:13.130Z,1.50
2022-11-30T08:08:41.345Z,1.50
2022-11-30T08:11:10.584Z,1.50
2022-11-30T08:13:37.547Z,1.50
2022-11-30T08:16:09.936Z,1.70
2022-11-30T08:18:37.524Z,1.50
2022-11-30T08:21:06.337Z,1.40
2022-11-30T08:23:38.245Z,2.70
2022-11-30T08:26:06.685Z,1.50
2022-11-30T08:28:36.157Z,1.50
2022-11-30T08:31:06.022Z,1.50
2022-11-30T08:33:34.096Z,1.60
2022-11-30T08:36:13.151Z,1.50
2022-11-30T08:38:41.429Z,1.50
2022-11-30T08:41:09.948Z,1.40
2022-11-30T08:43:36.834Z,1.40
2022-11-30T08:46:16.198Z,1.50
2022-11-30T08:49:02.332Z,1.50
2022-11-30T08:52:14.713Z,1.60
2022-11-30T08:54:27.490Z,1.70
2022-11-30T08:56:54.388Z,1.70
2022-11-30T08:59:21.430Z,1.60
2022-11-30T09:01:48.295Z,1.60
2022-11-30T09:04:15.229Z,1.80
2022-11-30T09:06:42.144Z,1.70
2022-11-30T09:09:09.495Z,1.80
2022-11-30T09:11:36.416Z,1.50
2022-11-30T09:14:09.085Z,1.50
2022-11-30T09:16:36.024Z,1.40
2022-11-30T09:19:03.223Z,1.60
2022-11-30T09:21:30.613Z,1.70
2022-11-30T09:23:57.527Z,1.70
2022-11-30T09:26:25.675Z,1.70
2022-11-30T09:28:55.063Z,1.80
2022-11-30T09:31:27.219Z,1.80
2022-11-30T09:33:56.323Z,1.80
2022-11-30T09:36:27.682Z,1.80
2022-11-30T09:38:56.164Z,1.70
2022-11-30T09:41:47.671Z,1.60
2022-11-30T09:44:48.043Z,1.70
2022-11-30T09:47:33.102Z,1.70
2022-11-30T09:50:10.363Z,1.60
2022-11-30T09:52:41.772Z,1.70
2022-11-30T09:55:11.956Z,1.60
2022-11-30T09:57:45.222Z,1.70
2022-11-30T10:00:19.150Z,1.80
2022-11-30T10:02:46.346Z,1.80
2022-11-30T10:05:23.078Z,1.80
2022-11-30T10:08:19.887Z,1.80
2022-11-30T10:10:56.258Z,1.80
2022-11-30T10:13:49.409Z,1.90
2022-11-30T10:16:30.831Z,1.90
2022-11-30T10:19:05.693Z,1.80
2022-11-30T10:21:53.824Z,1.90
2022-11-30T10:24:52.844Z,1.80
2022-11-30T10:27:38.223Z,1.80
2022-11-30T10:30:17.789Z,1.90
2022-11-30T10:32:48.427Z,1.90
2022-11-30T10:35:36.867Z,1.90
2022-11-30T10:38:15.047Z,1.90
2022-11-30T10:40:51.499Z,2.00
2022-11-30T10:43:20.998Z,2.00
2022-11-30T10:45:50.415Z,2.10
2022-11-30T10:48:23.198Z,2.10
2022-11-30T10:50:50.651Z,2.00
2022-11-30T10:53:17.584Z,2.10
2022-11-30T10:55:52.322Z,2.10
2022-11-30T10:58:36.267Z,2.00
2022-11-30T11:01:28.986Z,2.10
2022-11-30T11:04:14.968Z,1.90
2022-11-30T11:07:07.243Z,2.00
2022-11-30T11:09:47.008Z,2.00
2022-11-30T11:12:27.475Z,2.10
2022-11-30T11:15:21.065Z,2.00
2022-11-30T11:17:48.214Z,2.10
2022-11-30T11:20:32.458Z,2.10
2022-11-30T11:22:59.723Z,2.30
2022-11-30T11:25:36.347Z,2.30
2022-11-30T11:28:18.969Z,2.30
2022-11-30T11:30:45.872Z,2.30
2022-11-30T11:33:12.668Z,2.30
2022-11-30T11:35:49.594Z,2.30
2022-11-30T11:38:23.751Z,2.30
2022-11-30T11:41:13.390Z,2.30
2022-11-30T11:44:01.525Z,2.30
2022-11-30T11:46:30.128Z,2.30
2022-11-30T11:48:59.913Z,2.40
2022-11-30T11:51:32.719Z,2.40
2022-11-30T11:54:18.771Z,2.30
2022-11-30T11:56:46.655Z,2.30
2022-11-30T11:59:23.447Z,2.40
2022-11-30T12:02:23.873Z,2.50
2022-11-30T12:05:05.626Z,2.40
2022-11-30T12:07:44.040Z,2.40
2022-11-30T12:10:50.574Z,2.30
2022-11-30T12:13:16.752Z,2.10
2022-11-30T12:16:15.817Z,2.20
2022-11-30T12:19:10.046Z,2.20
2022-11-30T12:21:52.307Z,2.30
2022-11-30T12:24:41.931Z,2.30
2022-11-30T12:27:33.332Z,2.40
2022-11-30T12:30:11.626Z,2.50
2022-11-30T12:32:38.480Z,2.50
2022-11-30T12:35:42.295Z,2.50
2022-11-30T12:38:09.059Z,2.50
2022-11-30T12:41:06.057Z,2.50
2022-11-30T12:44:00.681Z,2.50
2022-11-30T12:46:33.584Z,2.70
2022-11-30T12:49:26.214Z,2.60
2022-11-30T12:52:21.170Z,2.70
2022-11-30T12:55:03.036Z,2.60
2022-11-30T12:57:43.961Z,2.50
2022-11-30T13:00:22.263Z,2.60
2022-11-30T13:03:04.472Z,2.60
2022-11-30T13:05:40.572Z,2.60
2022-11-30T13:08:33.745Z,2.50
2022-11-30T13:11:06.329Z,2.50
2022-11-30T13:13:36.239Z,2.50
2022-11-30T13:16:07.100Z,2.40
2022-11-30T13:18:34.875Z,2.40
2022-11-30T13:21:07.471Z,2.40
2022-11-30T13:23:44.980Z,2.40
2022-11-30T13:26:27.511Z,2.50
2022-11-30T13:29:16.034Z,2.30
2022-11-30T13:32:04.452Z,2.30
2022-11-30T13:34:32.912Z,2.30
2022-11-30T13:37:12.827Z,2.30
2022-11-30T13:39:48.605Z,2.30
2022-11-30T13:42:34.287Z,2.40
2022-11-30T13:45:30.928Z,2.40
2022-11-30T13:47:58.908Z,2.40
2022-11-30T13:50:40.886Z,2.40
2022-11-30T13:53:19.935Z,2.40
2022-11-30T13:55:57.271Z,2.40
2022-11-30T13:58:25.634Z,2.30
2022-11-30T14:01:27.635Z,2.40
2022-11-30T14:04:19.784Z,2.40
2022-11-30T14:06:55.583Z,2.40
2022-11-30T14:09:40.261Z,2.40
2022-11-30T14:12:36.940Z,2.30
2022-11-30T14:15:31.738Z,2.30
2022-11-30T14:17:59.122Z,2.30
2022-11-30T14:20:37.601Z,2.30
2022-11-30T14:23:23.363Z,2.30
2022-11-30T14:25:55.395Z,2.30
2022-11-30T14:28:27.806Z,2.30
2022-11-30T14:30:56.244Z,2.30
2022-11-30T14:33:48.346Z,2.30
2022-11-30T14:36:16.208Z,2.40
2022-11-30T14:38:43.349Z,2.40
2022-11-30T14:41:25.073Z,2.30
2022-11-30T14:44:03.853Z,2.30
2022-11-30T14:46:33.816Z,1.10
2022-11-30T14:49:21.903Z,2.30
2022-11-30T14:52:12.968Z,2.30
2022-11-30T14:55:04.541Z,2.30
2022-11-30T14:57:34.684Z,2.30
2022-11-30T15:00:02.033Z,2.30
2022-11-30T15:02:38.975Z,2.30
2022-11-30T15:05:08.707Z,2.20
2022-11-30T15:07:37.474Z,2.30
2022-11-30T15:10:12.477Z,2.30
2022-11-30T15:12:41.697Z,2.30
2022-11-30T15:15:26.500Z,2.30
2022-11-30T15:17:57.093Z,2.30
2022-11-30T15:20:37.880Z,2.20
2022-11-30T15:23:04.837Z,2.30
2022-11-30T15:25:38.653Z,2.30
2022-11-30T15:28:07.420Z,2.30
2022-11-30T15:30:40.877Z,2.30
2022-11-30T15:33:21.172Z,2.40
2022-11-30T15:36:15.873Z,2.30
2022-11-30T15:38:39.120Z,2.20
2022-11-30T15:41:20.904Z,2.20
2022-11-30T15:43:53.779Z,2.10
2022-11-30T15:46:31.637Z,2.10
2022-11-30T15:49:18.293Z,2.10
2022-11-30T15:51:47.633Z,2.10
2022-11-30T15:54:15.479Z,2.20
2022-11-30T15:56:55.841Z,2.10
2022-11-30T15:59:25.254Z,2.10
2022-11-30T16:02:05.008Z,2.10
2022-11-30T16:04:56.630Z,2.10
2022-11-30T16:07:31.667Z,2.10
2022-11-30T16:10:16.580Z,2.10
2022-11-30T16:12:44.695Z,2.10
2022-11-30T16:15:17.651Z,2.10
2022-11-30T16:17:44.548Z,2.10
2022-11-30T16:20:15.891Z,2.10
2022-11-30T16:22:45.578Z,2.10
2022-11-30T16:25:23.876Z,2.00
2022-11-30T16:27:51.356Z,2.00
2022-11-30T16:30:21.050Z,1.90
2022-11-30T16:32:48.305Z,1.90
2022-11-30T16:35:25.056Z,2.00
2022-11-30T16:37:52.392Z,2.10
2022-11-30T16:40:19.446Z,2.10
2022-11-30T16:42:48.226Z,2.10
2022-11-30T16:45:24.303Z,2.10
2022-11-30T16:47:52.753Z,2.00
2022-11-30T16:50:20.333Z,2.10
2022-11-30T16:52:47.544Z,2.10
2022-11-30T16:55:17.041Z,2.10
2022-11-30T16:57:43.950Z,2.00
2022-11-30T17:00:12.825Z,2.00
2022-11-30T17:02:44.906Z,2.00
2022-11-30T17:05:14.051Z,2.00
2022-11-30T17:07:41.508Z,2.00
2022-11-30T17:10:09.382Z,1.90
2022-11-30T17:12:36.341Z,2.00
2022-11-30T17:15:04.258Z,2.00
2022-11-30T17:17:31.245Z,2.00
2022-11-30T17:19:58.171Z,2.00
2022-11-30T17:22:25.070Z,1.90
2022-11-30T17:24:52.268Z,2.00
2022-11-30T17:27:19.100Z,1.90
2022-11-30T17:29:45.966Z,1.90
2022-11-30T17:32:12.896Z,1.90
2022-11-30T17:34:39.817Z,2.00
2022-11-30T17:37:06.744Z,1.90
2022-11-30T17:39:33.668Z,1.90
2022-11-30T17:42:00.564Z,1.80
2022-11-30T17:44:27.418Z,1.90
2022-11-30T17:46:54.359Z,2.00
2022-11-30T17:49:21.229Z,2.00
2022-11-30T17:51:48.159Z,1.90
2022-11-30T17:54:15.185Z,1.90
2022-11-30T17:56:43.480Z,1.90
2022-11-30T17:59:10.400Z,1.90
2022-11-30T18:01:38.113Z,1.90
2022-11-30T18:04:05.165Z,1.90
2022-11-30T18:06:31.994Z,1.90
2022-11-30T18:08:58.923Z,1.90
2022-11-30T18:11:28.080Z,1.90
2022-11-30T18:13:56.470Z,1.80
2022-11-30T18:16:28.226Z,1.90
2022-11-30T18:18:57.493Z,1.90
2022-11-30T18:21:26.704Z,1.80
2022-11-30T18:23:54.069Z,1.90
2022-11-30T18:26:24.179Z,1.80
2022-11-30T18:28:56.105Z,1.80
2022-11-30T18:31:23.345Z,1.70
2022-11-30T18:33:55.987Z,1.70
2022-11-30T18:36:23.275Z,1.70
2022-11-30T18:38:50.131Z,1.80
2022-11-30T18:41:17.155Z,1.80
2022-11-30T18:43:44.033Z,1.70
2022-11-30T18:46:12.584Z,1.80
2022-11-30T18:48:41.230Z,1.80
2022-11-30T18:51:11.709Z,1.70
2022-11-30T18:53:38.830Z,1.80
2022-11-30T18:56:14.630Z,1.70
2022-11-30T18:58:42.338Z,1.80
2022-11-30T19:01:17.102Z,1.80
2022-11-30T19:03:44.568Z,1.70
2022-11-30T19:06:12.054Z,1.60
2022-11-30T19:08:41.102Z,1.60
2022-11-30T19:11:10.033Z,1.60
2022-11-30T19:13:37.960Z,1.70
2022-11-30T19:16:16.716Z,1.70
2022-11-30T19:18:47.097Z,1.70
2022-11-30T19:21:18.086Z,1.70
2022-11-30T19:23:45.846Z,1.60
2022-11-30T19:26:14.763Z,1.60
2022-11-30T19:28:43.713Z,1.60
2022-11-30T19:31:16.728Z,1.60
2022-11-30T19:33:45.299Z,1.70
2022-11-30T19:36:19.965Z,1.70
2022-11-30T19:38:48.110Z,1.70
2022-11-30T19:41:16.092Z,1.70
2022-11-30T19:43:47.937Z,0.90
2022-11-30T19:46:18.647Z,1.70
2022-11-30T19:48:46.044Z,1.70
2022-11-30T19:51:18.280Z,1.60
2022-11-30T19:53:46.287Z,1.60
2022-11-30T19:56:17.834Z,1.60
2022-11-30T19:58:46.545Z,1.60
2022-11-30T20:01:15.252Z,1.60
2022-11-30T20:03:42.840Z,1.50
2022-11-30T20:06:10.218Z,1.60
2022-11-30T20:08:41.011Z,1.60
2022-11-30T20:11:12.422Z,1.70
2022-11-30T20:13:39.557Z,1.70
2022-11-30T20:16:09.305Z,1.70
2022-11-30T20:18:40.083Z,1.60
2022-11-30T20:21:15.204Z,1.70
2022-11-30T20:23:43.726Z,1.80
2022-11-30T20:26:19.442Z,1.70
2022-11-30T20:28:47.664Z,1.60
2022-11-30T20:31:16.883Z,0.60
2022-11-30T20:33:44.404Z,1.60
2022-11-30T20:36:12.442Z,1.60
2022-11-30T20:38:39.648Z,1.60
2022-11-30T20:41:12.428Z,1.60
2022-11-30T20:43:39.480Z,1.60
2022-11-30T20:46:21.805Z,1.60
2022-11-30T20:48:49.774Z,1.60
2022-11-30T20:51:30.572Z,1.60
2022-11-30T20:54:02.187Z,1.60
2022-11-30T20:56:29.642Z,1.60
2022-11-30T20:58:56.593Z,1.70
2022-11-30T21:01:23.811Z,1.60
2022-11-30T21:03:50.827Z,1.60
2022-11-30T21:06:17.835Z,1.60
2022-11-30T21:08:44.959Z,1.60
2022-11-30T21:11:14.843Z,1.70
2022-11-30T21:13:44.127Z,1.60
2022-11-30T21:16:13.083Z,1.60
2022-11-30T21:18:42.583Z,1.60
2022-11-30T21:21:21.216Z,1.50
2022-11-30T21:23:49.408Z,1.50
2022-11-30T21:26:17.573Z,1.70
2022-11-30T21:28:45.524Z,1.70
2022-11-30T21:31:13.120Z,1.60
2022-11-30T21:33:40.371Z,1.70
2022-11-30T21:36:09.590Z,1.70
2022-11-30T21:38:37.015Z,1.70
2022-11-30T21:41:04.769Z,1.60
2022-11-30T21:43:34.661Z,1.60
2022-11-30T21:46:11.596Z,1.70
2022-11-30T21:48:40.132Z,1.60
2022-11-30T21:51:11.004Z,1.50
2022-11-30T21:53:43.572Z,1.50
2022-11-30T21:56:14.739Z,1.50
2022-11-30T21:58:43.610Z,1.60
2022-11-30T22:01:16.340Z,1.50
2022-11-30T22:03:43.449Z,1.60
2022-11-30T22:06:12.578Z,1.60
2022-11-30T22:08:40.977Z,1.60
2022-11-30T22:11:11.051Z,1.50
2022-11-30T22:13:38.169Z,1.50
2022-11-30T22:16:10.895Z,1.60
2022-11-30T22:18:38.593Z,1.50
2022-11-30T22:21:17.150Z,1.50
2022-11-30T22:23:52.233Z,1.50
2022-11-30T22:26:23.196Z,1.60
2022-11-30T22:28:52.156Z,1.50
2022-11-30T22:31:21.564Z,1.50
2022-11-30T22:33:49.363Z,1.50
2022-11-30T22:36:19.006Z,1.50
2022-11-30T22:38:46.315Z,1.50
2022-11-30T22:41:16.391Z,1.50
2022-11-30T22:43:45.592Z,1.40
2022-11-30T22:46:16.460Z,1.40
2022-11-30T22:48:43.957Z,1.40
2022-11-30T22:51:13.951Z,1.60
2022-11-30T22:53:41.557Z,1.40
2022-11-30T22:56:17.669Z,1.50
2022-11-30T22:58:47.264Z,1.50
2022-11-30T23:01:21.318Z,1.50
2022-11-30T23:03:49.632Z,1.50
2022-11-30T23:06:18.324Z,1.50
2022-11-30T23:08:46.037Z,1.50
2022-11-30T23:11:15.965Z,1.50
2022-11-30T23:13:43.519Z,1.50
2022-11-30T23:16:12.159Z,1.50
2022-11-30T23:18:42.414Z,1.60
2022-11-30T23:21:13.002Z,1.50
2022-11-30T23:23:40.543Z,1.50
2022-11-30T23:26:20.373Z,1.50
2022-11-30T23:28:48.889Z,1.50
2022-11-30T23:31:34.516Z,1.50
2022-11-30T23:34:05.105Z,1.60
2022-11-30T23:36:32.942Z,1.60
2022-11-30T23:39:03.049Z,1.50
2022-11-30T23:41:30.135Z,1.50
2022-11-30T23:43:57.426Z,1.50
2022-11-30T23:46:25.486Z,1.50
2022-11-30T23:48:52.501Z,1.60
2022-11-30T23:51:19.712Z,1.50
2022-11-30T23:53:46.925Z,1.50
2022-11-30T23:56:16.195Z,1.40
2022-11-30T23:58:43.336Z,1.40
